createdAt,value
2022-07-29T00:04:48.713Z,17.55
2022-07-29T00:09:52.744Z,17.59
2022-07-29T00:14:58.236Z,17.66
2022-07-29T00:19:59.936Z,17.52
2022-07-29T00:25:01.816Z,17.56
2022-07-29T00:30:06.066Z,17.36
2022-07-29T00:35:28.124Z,17.25
2022-07-29T00:40:29.859Z,17.27
2022-07-29T00:45:31.794Z,17.23
2022-07-29T00:50:34.522Z,17.13
2022-07-29T00:55:36.894Z,17.00
2022-07-29T01:00:38.639Z,16.94
2022-07-29T01:05:49.980Z,16.90
2022-07-29T01:10:55.283Z,16.93
2022-07-29T01:16:09.643Z,16.94
2022-07-29T01:21:57.517Z,16.95
2022-07-29T01:27:53.434Z,16.93
2022-07-29T01:33:07.724Z,16.80
2022-07-29T01:38:26.087Z,16.86
2022-07-29T01:43:54.495Z,16.74
2022-07-29T01:49:12.513Z,16.86
2022-07-29T01:54:35.549Z,16.71
2022-07-29T01:59:39.522Z,16.64
2022-07-29T02:04:43.968Z,16.60
2022-07-29T02:09:50.377Z,16.58
2022-07-29T02:14:55.426Z,16.52
2022-07-29T02:20:02.755Z,16.37
2022-07-29T02:25:07.767Z,16.25
2022-07-29T02:30:16.161Z,16.27
2022-07-29T02:35:19.779Z,16.29
2022-07-29T02:40:21.550Z,16.28
2022-07-29T02:45:23.398Z,16.25
2022-07-29T02:50:38.152Z,16.25
2022-07-29T02:56:07.911Z,16.24
2022-07-29T03:01:21.746Z,16.36
2022-07-29T03:06:37.587Z,16.40
2022-07-29T03:11:49.418Z,16.36
2022-07-29T03:16:54.094Z,16.23
2022-07-29T03:21:59.688Z,16.18
2022-07-29T03:27:03.306Z,16.04
2022-07-29T03:32:08.851Z,15.93
2022-07-29T03:37:10.813Z,15.83
2022-07-29T03:42:17.284Z,15.85
2022-07-29T03:47:43.549Z,15.86
2022-07-29T03:52:53.429Z,15.92
2022-07-29T03:57:59.271Z,15.86
2022-07-29T04:03:01.991Z,15.96
2022-07-29T04:08:03.823Z,15.98
2022-07-29T04:13:05.524Z,15.95
2022-07-29T04:18:07.316Z,16.00
2022-07-29T04:23:09.138Z,16.06
2022-07-29T04:28:11.327Z,16.15
2022-07-29T04:33:13.225Z,16.14
2022-07-29T04:38:15.771Z,16.28
2022-07-29T04:43:20.573Z,16.36
2022-07-29T04:48:28.758Z,16.33
2022-07-29T04:53:30.823Z,16.44
2022-07-29T04:58:34.953Z,16.36
2022-07-29T05:03:36.657Z,16.31
2022-07-29T05:08:38.835Z,16.41
2022-07-29T05:13:45.448Z,16.58
2022-07-29T05:18:48.731Z,16.77
2022-07-29T05:23:50.458Z,16.80
2022-07-29T05:28:52.192Z,16.80
2022-07-29T05:33:54.066Z,16.79
2022-07-29T05:38:55.775Z,16.68
2022-07-29T05:43:57.663Z,16.66
2022-07-29T05:48:59.387Z,16.80
2022-07-29T05:54:01.247Z,16.99
2022-07-29T05:59:03.001Z,17.33
2022-07-29T06:04:04.961Z,17.75
2022-07-29T06:09:09.157Z,18.15
2022-07-29T06:14:15.343Z,19.19
2022-07-29T06:19:17.391Z,20.54
2022-07-29T06:24:19.601Z,20.42
2022-07-29T06:29:21.561Z,20.03
2022-07-29T06:34:23.338Z,19.79
2022-07-29T06:39:25.058Z,19.51
2022-07-29T06:44:26.794Z,19.32
2022-07-29T06:49:28.712Z,19.35
2022-07-29T06:54:30.512Z,19.44
2022-07-29T06:59:35.811Z,19.59
2022-07-29T07:04:37.784Z,20.05
2022-07-29T07:09:40.657Z,21.00
2022-07-29T07:14:42.815Z,22.44
2022-07-29T07:19:46.016Z,22.87
2022-07-29T07:24:47.739Z,22.64
2022-07-29T07:29:49.574Z,24.68
2022-07-29T07:34:51.363Z,26.67
2022-07-29T07:39:54.051Z,28.06
2022-07-29T07:45:12.560Z,28.37
2022-07-29T07:50:18.890Z,27.42
2022-07-29T07:55:21.682Z,28.25
2022-07-29T08:00:24.558Z,30.03
2022-07-29T08:05:26.333Z,30.34
2022-07-29T08:10:53.711Z,26.33
2022-07-29T08:16:00.245Z,28.25
2022-07-29T08:21:02.009Z,29.20
2022-07-29T08:26:03.700Z,27.75
2022-07-29T08:31:06.065Z,26.33
2022-07-29T08:36:08.321Z,26.68
2022-07-29T08:41:10.223Z,28.03
2022-07-29T08:46:11.976Z,29.42
2022-07-29T08:51:21.229Z,30.52
2022-07-29T08:56:23.803Z,26.05
2022-07-29T09:01:35.998Z,25.45
2022-07-29T09:06:46.357Z,24.95
2022-07-29T09:11:48.425Z,25.60
2022-07-29T09:16:57.549Z,25.39
2022-07-29T09:22:03.467Z,26.60
2022-07-29T09:27:30.007Z,26.25
2022-07-29T09:32:33.426Z,25.90
2022-07-29T09:37:35.201Z,25.03
2022-07-29T09:42:37.356Z,24.68
2022-07-29T09:47:50.053Z,24.58
2022-07-29T09:52:54.332Z,24.41
2022-07-29T09:58:21.177Z,25.14
2022-07-29T10:03:25.073Z,26.12
2022-07-29T10:08:27.902Z,26.69
2022-07-29T10:13:29.674Z,26.43
2022-07-29T10:18:31.903Z,25.77
2022-07-29T10:23:46.854Z,24.69
2022-07-29T10:28:49.073Z,24.65
2022-07-29T10:34:20.802Z,25.22
2022-07-29T10:40:37.471Z,26.18
2022-07-29T10:45:43.493Z,25.52
2022-07-29T10:51:03.971Z,24.84
2022-07-29T10:56:25.400Z,25.02
2022-07-29T11:01:37.420Z,24.91
2022-07-29T11:07:17.633Z,24.88
2022-07-29T11:12:37.650Z,25.09
2022-07-29T11:18:05.297Z,25.57
2022-07-29T11:23:40.294Z,25.75
2022-07-29T11:34:37.891Z,26.03
2022-07-29T11:40:01.517Z,25.86
2022-07-29T11:45:41.015Z,26.07
2022-07-29T11:50:37.687Z,26.37
2022-07-29T11:55:51.813Z,26.18
2022-07-29T12:06:18.313Z,26.43
2022-07-29T12:07:01.387Z,25.51
2022-07-29T12:07:03.764Z,26.41
2022-07-29T12:11:23.488Z,26.46
2022-07-29T12:16:37.279Z,26.51
2022-07-29T12:21:59.505Z,26.62
2022-07-29T12:27:05.186Z,26.03
2022-07-29T12:32:15.000Z,26.12
2022-07-29T12:37:35.738Z,26.47
2022-07-29T12:43:05.986Z,26.85
2022-07-29T12:48:14.633Z,26.44
2022-07-29T12:53:17.823Z,26.32
2022-07-29T12:58:41.894Z,26.55
2022-07-29T13:04:03.240Z,26.88
2022-07-29T13:09:12.500Z,26.87
2022-07-29T13:14:31.564Z,26.75
2022-07-29T13:19:52.292Z,26.94
2022-07-29T13:25:05.585Z,26.95
2022-07-29T13:30:10.667Z,26.92
2022-07-29T13:35:12.805Z,27.03
2022-07-29T13:40:15.253Z,27.02
2022-07-29T13:45:17.393Z,27.19
2022-07-29T13:50:19.180Z,27.22
2022-07-29T13:55:21.013Z,26.73
2022-07-29T14:00:24.539Z,26.87
2022-07-29T14:05:26.306Z,26.90
2022-07-29T14:10:28.174Z,26.60
2022-07-29T14:15:29.938Z,26.29
2022-07-29T14:20:32.274Z,26.63
2022-07-29T14:25:34.029Z,26.84
2022-07-29T14:30:35.916Z,26.99
2022-07-29T14:35:37.785Z,26.97
2022-07-29T14:40:39.486Z,26.67
2022-07-29T14:45:42.109Z,26.74
2022-07-29T14:50:43.888Z,26.97
2022-07-29T14:55:51.718Z,27.13
2022-07-29T15:00:55.546Z,27.23
2022-07-29T15:05:57.437Z,27.14
2022-07-29T15:11:00.337Z,26.95
2022-07-29T15:16:02.263Z,26.93
2022-07-29T15:21:04.024Z,26.72
2022-07-29T15:26:05.849Z,26.52
2022-07-29T15:31:07.517Z,26.58
2022-07-29T15:36:09.560Z,26.65
2022-07-29T15:41:15.332Z,26.69
2022-07-29T15:46:38.785Z,26.80
2022-07-29T15:51:40.496Z,26.82
2022-07-29T15:56:42.290Z,26.74
2022-07-29T16:01:44.000Z,26.62
2022-07-29T16:06:47.611Z,26.65
2022-07-29T16:11:50.929Z,26.42
2022-07-29T16:16:52.711Z,26.23
2022-07-29T16:21:59.531Z,26.19
2022-07-29T16:27:01.956Z,26.18
2022-07-29T16:32:06.664Z,26.22
2022-07-29T16:37:08.470Z,26.15
2022-07-29T16:42:21.236Z,26.11
2022-07-29T16:47:32.333Z,26.02
2022-07-29T16:52:34.266Z,25.99
2022-07-29T16:57:36.061Z,25.98
2022-07-29T17:02:38.731Z,25.91
2022-07-29T17:07:41.639Z,25.82
2022-07-29T17:12:43.620Z,25.94
2022-07-29T17:17:55.251Z,25.92
2022-07-29T17:22:58.647Z,25.90
2022-07-29T17:28:01.583Z,25.83
2022-07-29T17:33:03.429Z,25.79
2022-07-29T17:38:05.221Z,25.72
2022-07-29T17:43:09.229Z,25.62
2022-07-29T17:48:11.212Z,25.56
2022-07-29T17:53:15.683Z,25.44
2022-07-29T17:58:18.454Z,25.33
2022-07-29T18:03:20.603Z,25.32
2022-07-29T18:08:22.329Z,25.25
2022-07-29T18:13:24.686Z,25.12
2022-07-29T18:18:26.437Z,25.02
2022-07-29T18:23:28.190Z,24.97
2022-07-29T18:28:29.974Z,24.92
2022-07-29T18:33:32.634Z,24.76
2022-07-29T18:38:34.927Z,24.80
2022-07-29T18:43:36.688Z,24.71
2022-07-29T18:48:38.420Z,24.67
2022-07-29T18:53:40.313Z,24.61
2022-07-29T18:58:42.074Z,24.51
2022-07-29T19:03:43.985Z,24.45
2022-07-29T19:08:45.727Z,24.35
2022-07-29T19:13:47.493Z,24.26
2022-07-29T19:18:49.232Z,24.23
2022-07-29T19:24:00.660Z,24.14
2022-07-29T19:29:09.436Z,24.04
2022-07-29T19:34:12.134Z,23.92
2022-07-29T19:39:15.274Z,23.83
2022-07-29T19:44:17.150Z,23.82
2022-07-29T19:49:18.921Z,23.68
2022-07-29T19:54:20.729Z,23.60
2022-07-29T19:59:23.964Z,23.53
2022-07-29T20:04:27.392Z,23.44
2022-07-29T20:09:29.181Z,23.38
2022-07-29T20:14:30.960Z,23.20
2022-07-29T20:19:33.777Z,23.14
2022-07-29T20:24:35.505Z,23.05
2022-07-29T20:29:38.243Z,22.99
2022-07-29T20:34:43.198Z,22.91
2022-07-29T20:39:47.819Z,22.84
2022-07-29T20:44:51.069Z,22.73
2022-07-29T20:49:53.310Z,22.72
2022-07-29T20:54:58.174Z,22.51
2022-07-29T20:59:59.881Z,22.60
2022-07-29T21:05:01.811Z,22.45
2022-07-29T21:10:05.375Z,22.39
2022-07-29T21:15:08.121Z,22.42
2022-07-29T21:20:10.842Z,22.37
2022-07-29T21:25:12.768Z,22.33
2022-07-29T21:30:14.577Z,22.28
2022-07-29T21:35:35.729Z,22.31
2022-07-29T21:40:38.873Z,22.22
2022-07-29T21:45:41.565Z,22.22
2022-07-29T21:50:43.741Z,22.16
2022-07-29T21:55:47.906Z,22.14
2022-07-29T22:00:50.033Z,22.07
2022-07-29T22:05:52.022Z,22.04
2022-07-29T22:10:54.998Z,22.02
2022-07-29T22:15:56.762Z,22.00
2022-07-29T22:20:58.437Z,21.89
2022-07-29T22:26:00.161Z,21.87
2022-07-29T22:31:02.336Z,21.84
2022-07-29T22:36:04.585Z,21.80
2022-07-29T22:41:06.328Z,21.81
2022-07-29T22:46:10.403Z,21.77
2022-07-29T22:51:12.844Z,21.71
2022-07-29T22:56:15.064Z,21.66
2022-07-29T23:01:37.240Z,21.61
2022-07-29T23:06:39.866Z,21.64
2022-07-29T23:11:41.662Z,21.26
2022-07-29T23:16:43.425Z,21.14
2022-07-29T23:21:45.289Z,21.10
2022-07-29T23:26:47.003Z,21.08
2022-07-29T23:31:48.695Z,21.12
2022-07-29T23:36:50.659Z,21.07
2022-07-29T23:41:52.350Z,21.02
2022-07-29T23:46:54.106Z,20.97
2022-07-29T23:51:55.886Z,20.95
2022-07-29T23:56:58.183Z,20.97
